createdAt,value
2023-05-18T00:00:12.101Z,0
2023-05-18T00:01:18.207Z,0
2023-05-18T00:03:30.488Z,0
2023-05-18T00:04:36.771Z,0
2023-05-18T00:05:42.892Z,0
2023-05-18T00:06:49.037Z,0
2023-05-18T00:07:55.179Z,0
2023-05-18T00:10:07.490Z,0
2023-05-18T00:13:25.909Z,0
2023-05-18T00:14:32.058Z,0
2023-05-18T00:15:38.175Z,0
2023-05-18T00:16:44.345Z,0
2023-05-18T00:20:02.754Z,0
2023-05-18T00:21:07.919Z,0
2023-05-18T00:22:14.059Z,0
2023-05-18T00:23:20.227Z,0
2023-05-18T00:25:32.494Z,0
2023-05-18T00:28:50.906Z,0
2023-05-18T00:29:57.056Z,0
2023-05-18T00:31:03.204Z,0
2023-05-18T00:32:09.350Z,0
2023-05-18T00:36:33.925Z,0
2023-05-18T00:37:39.092Z,0
2023-05-18T00:38:45.238Z,0
2023-05-18T00:40:57.518Z,0
2023-05-18T00:42:03.660Z,0
2023-05-18T00:44:15.944Z,0
2023-05-18T00:45:22.086Z,0
2023-05-18T00:46:28.250Z,0
2023-05-18T00:47:34.370Z,0
2023-05-18T00:48:40.519Z,0
2023-05-18T00:49:46.658Z,0
2023-05-18T00:50:52.804Z,0
2023-05-18T00:54:10.262Z,0
2023-05-18T00:55:16.391Z,0
2023-05-18T00:56:22.538Z,0
2023-05-18T00:58:34.829Z,0
2023-05-18T00:59:40.966Z,0
2023-05-18T01:01:53.256Z,0
2023-05-18T01:02:59.407Z,0
2023-05-18T01:04:05.541Z,0
2023-05-18T01:07:23.979Z,0
2023-05-18T01:09:35.266Z,0
2023-05-18T01:10:41.413Z,0
2023-05-18T01:12:53.697Z,0
2023-05-18T01:13:59.847Z,0
2023-05-18T01:15:05.981Z,0
2023-05-18T01:16:12.137Z,0
2023-05-18T01:17:18.280Z,0
2023-05-18T01:20:36.709Z,0
2023-05-18T01:21:42.857Z,0
2023-05-18T01:23:54.142Z,0
2023-05-18T01:26:06.430Z,0
2023-05-18T01:27:12.589Z,0
2023-05-18T01:28:18.714Z,0
2023-05-18T01:31:37.161Z,0
2023-05-18T01:32:43.297Z,0
2023-05-18T01:33:49.439Z,0
2023-05-18T01:34:55.587Z,0
2023-05-18T01:36:01.716Z,0
2023-05-18T01:38:13.034Z,0
2023-05-18T01:39:19.213Z,0
2023-05-18T01:40:25.314Z,0
2023-05-18T01:42:37.607Z,0
2023-05-18T01:43:43.739Z,0
2023-05-18T01:44:49.888Z,0
2023-05-18T01:45:56.019Z,0
2023-05-18T01:47:02.183Z,0
2023-05-18T01:48:08.323Z,0
2023-05-18T01:51:26.752Z,0
2023-05-18T01:53:38.046Z,0
2023-05-18T01:54:44.185Z,0
2023-05-18T01:55:50.334Z,0
2023-05-18T01:59:08.774Z,0
2023-05-18T02:00:14.915Z,0
2023-05-18T02:01:21.070Z,0
2023-05-18T02:04:38.508Z,0
2023-05-18T02:06:49.817Z,0
2023-05-18T02:07:54.978Z,0
2023-05-18T02:10:07.268Z,0
2023-05-18T02:11:13.416Z,0
2023-05-18T02:12:19.557Z,0
2023-05-18T02:15:37.984Z,0
2023-05-18T02:16:44.199Z,0
2023-05-18T02:17:50.249Z,0
2023-05-18T02:18:56.421Z,0
2023-05-18T02:20:02.556Z,0
2023-05-18T02:21:08.713Z,0
2023-05-18T02:22:13.855Z,0
2023-05-18T02:23:19.988Z,0
2023-05-18T02:24:26.137Z,0
2023-05-18T02:25:32.273Z,0
2023-05-18T02:27:44.576Z,0
2023-05-18T02:28:50.714Z,0
2023-05-18T02:32:09.146Z,0
2023-05-18T02:33:15.278Z,0
2023-05-18T02:34:21.423Z,0
2023-05-18T02:37:39.889Z,0
2023-05-18T02:38:45.035Z,0
2023-05-18T02:39:51.164Z,0
2023-05-18T02:40:57.316Z,0
2023-05-18T02:43:09.590Z,0
2023-05-18T02:44:15.733Z,0
2023-05-18T02:45:21.888Z,0
2023-05-18T02:46:28.059Z,0
2023-05-18T02:48:40.322Z,0
2023-05-18T02:49:46.442Z,0
2023-05-18T02:50:52.600Z,0
2023-05-18T02:51:58.744Z,0
2023-05-18T02:53:03.897Z,0
2023-05-18T02:54:10.045Z,0
2023-05-18T02:55:16.176Z,0
2023-05-18T02:56:22.321Z,0
2023-05-18T02:57:28.465Z,0
2023-05-18T02:58:34.611Z,0
2023-05-18T03:00:46.902Z,0
2023-05-18T03:01:53.053Z,0
2023-05-18T03:02:59.201Z,0
2023-05-18T03:06:17.623Z,0
2023-05-18T03:07:22.791Z,0
2023-05-18T03:08:28.936Z,0
2023-05-18T03:09:35.075Z,0
2023-05-18T03:10:41.209Z,0
2023-05-18T03:11:47.354Z,0
2023-05-18T03:12:53.493Z,0
2023-05-18T03:13:59.647Z,0
2023-05-18T03:15:05.782Z,0
2023-05-18T03:16:11.932Z,0
2023-05-18T03:17:18.068Z,0
2023-05-18T03:18:24.218Z,0
2023-05-18T03:19:30.371Z,0
2023-05-18T03:22:48.778Z,0
2023-05-18T03:23:53.958Z,0
2023-05-18T03:25:00.101Z,0
2023-05-18T03:26:06.253Z,0
2023-05-18T03:27:12.387Z,0
2023-05-18T03:28:18.521Z,0
2023-05-18T03:29:24.683Z,0
2023-05-18T03:31:36.958Z,0
2023-05-18T03:32:43.111Z,0
2023-05-18T03:33:49.251Z,0
2023-05-18T03:34:55.380Z,0
2023-05-18T03:39:19.953Z,0
2023-05-18T03:40:25.127Z,0
2023-05-18T03:41:31.270Z,0
2023-05-18T03:42:37.399Z,5
2023-05-18T03:43:43.554Z,5
2023-05-18T03:44:49.691Z,5
2023-05-18T03:48:08.113Z,5
2023-05-18T03:49:14.256Z,5
2023-05-18T03:50:20.399Z,5
2023-05-18T03:52:32.693Z,11
2023-05-18T03:54:44.978Z,11
2023-05-18T03:55:50.156Z,11
2023-05-18T03:56:56.275Z,11
2023-05-18T03:58:02.419Z,11
2023-05-18T03:59:08.569Z,16
2023-05-18T04:00:14.706Z,16
2023-05-18T04:01:20.856Z,16
2023-05-18T04:02:26.992Z,16
2023-05-18T04:03:33.158Z,16
2023-05-18T04:04:39.289Z,22
2023-05-18T04:06:51.561Z,22
2023-05-18T04:07:57.716Z,22
2023-05-18T04:09:03.852Z,22
2023-05-18T04:11:15.152Z,28
2023-05-18T04:15:39.843Z,33
2023-05-18T04:16:45.987Z,33
2023-05-18T04:17:52.126Z,33
2023-05-18T04:20:04.416Z,33
2023-05-18T04:22:16.707Z,39
2023-05-18T04:23:22.844Z,39
2023-05-18T04:24:28.006Z,39
2023-05-18T04:25:34.145Z,39
2023-05-18T04:29:58.729Z,45
2023-05-18T04:31:04.858Z,50
2023-05-18T04:32:11.020Z,50
2023-05-18T04:33:17.142Z,50
2023-05-18T04:34:23.292Z,50
2023-05-18T04:35:29.448Z,56
2023-05-18T04:36:35.585Z,56
2023-05-18T04:37:41.716Z,56
2023-05-18T04:39:53.030Z,61
2023-05-18T04:40:59.169Z,61
2023-05-18T04:46:29.879Z,73
2023-05-18T04:47:36.074Z,73
2023-05-18T04:48:42.172Z,73
2023-05-18T04:49:48.334Z,78
2023-05-18T04:50:54.465Z,78
2023-05-18T04:52:00.614Z,84
2023-05-18T04:53:05.774Z,84
2023-05-18T04:54:11.908Z,90
2023-05-18T04:55:18.037Z,90
2023-05-18T04:56:24.194Z,95
2023-05-18T05:00:48.773Z,101
2023-05-18T05:01:54.908Z,101
2023-05-18T05:03:01.053Z,106
2023-05-18T05:04:07.189Z,106
2023-05-18T05:05:13.346Z,106
2023-05-18T05:06:19.486Z,106
2023-05-18T05:07:24.626Z,106
2023-05-18T05:08:30.788Z,106
2023-05-18T05:09:36.919Z,106
2023-05-18T05:10:43.081Z,106
2023-05-18T05:11:49.212Z,106
2023-05-18T05:12:55.352Z,106
2023-05-18T05:15:07.643Z,112
2023-05-18T05:18:26.060Z,112
2023-05-18T05:19:32.220Z,112
2023-05-18T05:20:38.357Z,118
2023-05-18T05:21:43.506Z,123
2023-05-18T05:22:49.665Z,123
2023-05-18T05:23:55.803Z,129
2023-05-18T05:25:01.947Z,135
2023-05-18T05:26:08.084Z,146
2023-05-18T05:27:14.219Z,146
2023-05-18T05:28:20.384Z,151
2023-05-18T05:30:32.649Z,168
2023-05-18T05:31:38.790Z,174
2023-05-18T05:33:51.082Z,185
2023-05-18T05:34:57.228Z,191
2023-05-18T05:36:02.398Z,196
2023-05-18T05:37:08.529Z,202
2023-05-18T05:38:14.656Z,208
2023-05-18T05:39:20.817Z,213
2023-05-18T05:41:33.114Z,236
2023-05-18T05:42:39.259Z,236
2023-05-18T05:45:57.684Z,258
2023-05-18T05:47:03.826Z,258
2023-05-18T05:48:09.967Z,264
2023-05-18T05:52:33.559Z,270
2023-05-18T05:53:38.712Z,270
2023-05-18T05:54:44.878Z,270
2023-05-18T05:55:51.014Z,270
2023-05-18T05:56:57.159Z,264
2023-05-18T05:58:03.288Z,264
2023-05-18T05:59:09.437Z,270
2023-05-18T06:02:27.870Z,258
2023-05-18T06:04:40.162Z,253
2023-05-18T06:06:52.435Z,241
2023-05-18T06:07:57.607Z,241
2023-05-18T06:10:09.907Z,236
2023-05-18T06:11:16.043Z,241
2023-05-18T06:12:22.173Z,230
2023-05-18T06:13:28.315Z,241
2023-05-18T06:14:34.471Z,236
2023-05-18T06:15:40.588Z,213
2023-05-18T06:16:46.750Z,202
2023-05-18T06:18:59.020Z,219
2023-05-18T06:25:35.894Z,208
2023-05-18T06:26:41.068Z,213
2023-05-18T06:27:47.194Z,230
2023-05-18T06:28:53.375Z,236
2023-05-18T06:31:05.623Z,191
2023-05-18T06:32:11.774Z,213
2023-05-18T06:33:17.915Z,286
2023-05-18T06:34:24.050Z,275
2023-05-18T06:35:30.204Z,309
2023-05-18T06:41:00.910Z,388
2023-05-18T06:42:06.074Z,427
2023-05-18T06:43:12.214Z,376
2023-05-18T06:44:18.351Z,427
2023-05-18T06:45:24.507Z,376
2023-05-18T06:47:36.799Z,427
2023-05-18T06:48:42.937Z,438
2023-05-18T06:49:49.080Z,433
2023-05-18T06:52:01.361Z,450
2023-05-18T06:53:07.508Z,455
2023-05-18T06:56:25.933Z,444
2023-05-18T06:57:32.083Z,461
2023-05-18T06:58:37.249Z,433
2023-05-18T07:00:49.550Z,466
2023-05-18T07:01:55.673Z,472
2023-05-18T07:04:07.956Z,466
2023-05-18T07:05:14.130Z,489
2023-05-18T07:07:26.495Z,478
2023-05-18T07:08:32.531Z,489
2023-05-18T07:09:38.687Z,523
2023-05-18T07:10:44.874Z,545
2023-05-18T07:15:09.389Z,540
2023-05-18T07:16:14.546Z,523
2023-05-18T07:17:20.691Z,528
2023-05-18T07:18:26.828Z,528
2023-05-18T07:19:32.988Z,343
2023-05-18T07:20:39.120Z,354
2023-05-18T07:21:45.262Z,607
2023-05-18T07:22:51.395Z,573
2023-05-18T07:26:09.832Z,585
2023-05-18T07:27:15.983Z,579
2023-05-18T07:33:52.862Z,635
2023-05-18T07:34:58.001Z,624
2023-05-18T07:36:04.161Z,669
2023-05-18T07:37:10.309Z,663
2023-05-18T07:38:16.428Z,675
2023-05-18T07:40:28.720Z,703
2023-05-18T07:41:34.893Z,697
2023-05-18T07:42:41.004Z,736
2023-05-18T07:45:59.612Z,753
2023-05-18T07:47:05.561Z,798
2023-05-18T07:48:11.717Z,736
2023-05-18T07:49:16.884Z,753
2023-05-18T07:50:23.006Z,748
2023-05-18T07:51:29.154Z,714
2023-05-18T07:52:35.312Z,703
2023-05-18T07:54:47.579Z,888
2023-05-18T07:55:53.731Z,888
2023-05-18T07:56:59.865Z,916
2023-05-18T07:58:06.017Z,967
2023-05-18T07:59:12.150Z,776
2023-05-18T08:00:18.301Z,990
2023-05-18T08:02:30.586Z,1001
2023-05-18T08:04:41.896Z,1085
2023-05-18T08:05:48.035Z,1012
2023-05-18T08:08:00.324Z,990
2023-05-18T08:10:12.599Z,973
2023-05-18T08:11:18.762Z,990
2023-05-18T08:12:24.879Z,1080
2023-05-18T08:14:37.170Z,1175
2023-05-18T08:16:49.463Z,1203
2023-05-18T08:19:00.766Z,1181
2023-05-18T08:20:06.947Z,1355
2023-05-18T08:21:13.051Z,1316
2023-05-18T08:22:19.197Z,1496
2023-05-18T08:23:25.351Z,1473
2023-05-18T08:24:31.474Z,1344
2023-05-18T08:25:37.621Z,1226
2023-05-18T08:27:49.915Z,1215
2023-05-18T08:28:56.093Z,1260
2023-05-18T08:31:08.335Z,1136
2023-05-18T08:32:14.478Z,916
2023-05-18T08:33:20.623Z,1085
2023-05-18T08:35:31.969Z,1305
2023-05-18T08:36:38.066Z,1473
2023-05-18T08:41:02.639Z,1378
2023-05-18T08:43:14.923Z,2160
2023-05-18T08:44:21.073Z,1591
2023-05-18T08:45:27.215Z,2250
2023-05-18T08:46:33.354Z,1676
2023-05-18T08:47:39.497Z,1878
2023-05-18T08:49:50.807Z,1141
2023-05-18T08:52:03.098Z,1158
2023-05-18T08:53:09.244Z,1243
2023-05-18T08:55:21.525Z,815
2023-05-18T08:56:27.782Z,1310
2023-05-18T08:57:33.874Z,1260
2023-05-18T08:59:46.081Z,1327
2023-05-18T09:00:52.236Z,821
2023-05-18T09:04:10.661Z,1434
2023-05-18T09:05:15.844Z,1203
2023-05-18T09:14:05.008Z,1828
2023-05-18T09:16:17.251Z,1878
2023-05-18T09:17:23.396Z,1901
2023-05-18T09:19:35.692Z,2008
2023-05-18T09:20:40.846Z,1625
2023-05-18T09:21:46.992Z,888
2023-05-18T09:22:53.141Z,945
2023-05-18T09:25:05.436Z,843
2023-05-18T09:26:11.584Z,815
2023-05-18T09:27:17.700Z,821
2023-05-18T09:28:23.848Z,753
2023-05-18T09:29:30.009Z,590
2023-05-18T09:30:36.154Z,556
2023-05-18T09:31:42.282Z,450
2023-05-18T09:35:00.710Z,551
2023-05-18T09:36:05.869Z,478
2023-05-18T09:37:12.024Z,506
2023-05-18T09:38:18.168Z,579
2023-05-18T09:41:36.593Z,652
2023-05-18T09:43:48.872Z,579
2023-05-18T09:44:55.014Z,613
2023-05-18T09:46:01.163Z,652
2023-05-18T09:47:07.304Z,635
2023-05-18T09:49:19.583Z,472
2023-05-18T09:51:30.963Z,354
2023-05-18T09:52:37.034Z,354
2023-05-18T09:53:43.177Z,388
2023-05-18T09:58:07.760Z,556
2023-05-18T10:00:20.029Z,590
2023-05-18T10:01:26.197Z,607
2023-05-18T10:03:38.468Z,489
2023-05-18T10:04:43.622Z,483
2023-05-18T10:06:55.903Z,511
2023-05-18T10:08:02.090Z,478
2023-05-18T10:09:08.200Z,495
2023-05-18T10:10:14.336Z,534
2023-05-18T10:12:26.631Z,911
2023-05-18T10:14:38.928Z,618
2023-05-18T10:15:45.064Z,562
2023-05-18T10:16:51.199Z,607
2023-05-18T10:17:57.358Z,630
2023-05-18T10:19:02.496Z,641
2023-05-18T10:20:08.641Z,573
2023-05-18T10:21:14.804Z,607
2023-05-18T10:22:20.941Z,523
2023-05-18T10:23:27.072Z,461
2023-05-18T10:25:39.358Z,478
2023-05-18T10:26:45.495Z,489
2023-05-18T10:28:57.798Z,495
2023-05-18T10:32:16.255Z,517
2023-05-18T10:33:22.367Z,523
2023-05-18T10:34:27.518Z,478
2023-05-18T10:36:39.815Z,472
2023-05-18T10:37:45.956Z,489
2023-05-18T10:39:58.239Z,517
2023-05-18T10:41:04.397Z,551
2023-05-18T10:43:16.813Z,568
2023-05-18T10:45:28.949Z,551
2023-05-18T10:47:41.243Z,601
2023-05-18T10:50:58.692Z,781
2023-05-18T10:52:04.837Z,781
2023-05-18T10:53:10.961Z,804
2023-05-18T10:54:17.120Z,922
2023-05-18T10:55:23.278Z,860
2023-05-18T10:56:29.387Z,883
2023-05-18T10:58:41.725Z,939
2023-05-18T11:00:53.968Z,663
2023-05-18T11:02:00.122Z,911
2023-05-18T11:05:17.557Z,528
2023-05-18T11:06:23.702Z,506
2023-05-18T11:09:42.152Z,483
2023-05-18T11:10:48.294Z,360
2023-05-18T11:14:06.716Z,399
2023-05-18T11:16:18.979Z,399
2023-05-18T11:18:30.299Z,315
2023-05-18T11:20:42.589Z,376
2023-05-18T11:22:54.922Z,376
2023-05-18T11:24:01.004Z,388
2023-05-18T11:25:07.160Z,416
2023-05-18T11:26:13.289Z,433
2023-05-18T11:29:31.722Z,421
2023-05-18T11:32:50.163Z,534
2023-05-18T11:35:01.468Z,506
2023-05-18T11:38:19.885Z,528
2023-05-18T11:41:38.336Z,450
2023-05-18T11:42:44.475Z,405
2023-05-18T11:43:50.600Z,399
2023-05-18T11:46:02.893Z,466
2023-05-18T11:49:21.322Z,382
2023-05-18T11:50:26.471Z,354
2023-05-18T11:53:44.910Z,365
2023-05-18T11:54:51.062Z,410
2023-05-18T11:55:57.305Z,427
2023-05-18T11:57:03.331Z,421
2023-05-18T11:58:09.471Z,427
2023-05-18T11:59:15.611Z,416
2023-05-18T12:01:27.895Z,410
2023-05-18T12:02:34.066Z,427
2023-05-18T12:03:40.193Z,438
2023-05-18T12:04:45.346Z,455
2023-05-18T12:06:57.631Z,495
2023-05-18T12:08:03.803Z,500
2023-05-18T12:10:16.126Z,506
2023-05-18T12:11:22.199Z,517
2023-05-18T12:13:34.493Z,523
2023-05-18T12:14:40.653Z,517
2023-05-18T12:15:46.779Z,500
2023-05-18T12:16:52.942Z,489
2023-05-18T12:17:59.060Z,472
2023-05-18T12:19:04.220Z,444
2023-05-18T12:20:10.358Z,421
2023-05-18T12:21:16.529Z,393
2023-05-18T12:23:28.858Z,382
2023-05-18T12:24:35.047Z,382
2023-05-18T12:32:17.977Z,399
2023-05-18T12:33:23.155Z,405
2023-05-18T12:34:29.252Z,410
2023-05-18T12:35:35.442Z,421
2023-05-18T12:37:47.670Z,444
2023-05-18T12:38:53.836Z,438
2023-05-18T12:40:00.024Z,427
2023-05-18T12:44:24.526Z,326
2023-05-18T12:45:30.673Z,298
2023-05-18T12:47:43.104Z,281
2023-05-18T12:48:49.358Z,258
2023-05-18T12:53:13.824Z,253
2023-05-18T12:54:19.935Z,253
2023-05-18T12:55:26.078Z,258
2023-05-18T12:56:32.254Z,270
2023-05-18T13:00:56.800Z,286
2023-05-18T13:02:02.939Z,286
2023-05-18T13:04:14.249Z,258
2023-05-18T13:05:20.391Z,247
2023-05-18T13:07:32.688Z,225
2023-05-18T13:09:44.962Z,230
2023-05-18T13:10:51.117Z,241
2023-05-18T13:11:57.232Z,258
2023-05-18T13:16:21.830Z,315
2023-05-18T13:17:28.215Z,320
2023-05-18T13:18:34.228Z,326
2023-05-18T13:21:52.647Z,360
2023-05-18T13:22:58.806Z,365
2023-05-18T13:24:04.990Z,365
2023-05-18T13:25:11.074Z,365
2023-05-18T13:26:17.462Z,365
2023-05-18T13:29:35.691Z,365
2023-05-18T13:34:00.224Z,382
2023-05-18T13:35:05.438Z,382
2023-05-18T13:37:17.738Z,348
2023-05-18T13:39:30.008Z,360
2023-05-18T13:40:36.203Z,376
2023-05-18T13:41:42.252Z,382
2023-05-18T13:43:54.548Z,371
2023-05-18T13:45:00.674Z,354
2023-05-18T13:46:06.843Z,343
2023-05-18T13:49:25.350Z,303
2023-05-18T13:52:42.731Z,258
2023-05-18T13:53:48.868Z,225
2023-05-18T13:54:54.991Z,208
2023-05-18T13:56:01.131Z,208
2023-05-18T13:57:07.277Z,208
2023-05-18T13:58:13.419Z,219
2023-05-18T13:59:19.564Z,230
2023-05-18T14:01:31.882Z,241
2023-05-18T14:02:37.982Z,241
2023-05-18T14:03:44.125Z,236
2023-05-18T14:04:49.314Z,230
2023-05-18T14:05:55.555Z,236
2023-05-18T14:07:01.576Z,241
2023-05-18T14:08:07.769Z,247
2023-05-18T14:11:26.153Z,275
2023-05-18T14:12:32.291Z,286
2023-05-18T14:15:50.722Z,298
2023-05-18T14:16:56.867Z,303
2023-05-18T14:18:03.116Z,309
2023-05-18T14:19:08.221Z,315
2023-05-18T14:20:14.316Z,326
2023-05-18T14:22:26.645Z,337
2023-05-18T14:23:32.911Z,343
2023-05-18T14:24:38.874Z,343
2023-05-18T14:25:45.099Z,337
2023-05-18T14:26:51.254Z,320
2023-05-18T14:27:57.300Z,309
2023-05-18T14:29:03.519Z,298
2023-05-18T14:30:09.605Z,286
2023-05-18T14:31:15.756Z,281
2023-05-18T14:32:21.926Z,275
2023-05-18T14:33:28.103Z,275
2023-05-18T14:34:33.189Z,275
2023-05-18T14:41:10.033Z,241
2023-05-18T14:42:16.221Z,236
2023-05-18T14:43:22.386Z,230
2023-05-18T14:44:28.521Z,230
2023-05-18T14:46:40.784Z,236
2023-05-18T14:47:46.984Z,230
2023-05-18T14:48:52.152Z,225
2023-05-18T14:49:58.190Z,219
2023-05-18T14:51:04.352Z,219
2023-05-18T14:52:10.550Z,219
2023-05-18T14:53:16.725Z,219
2023-05-18T14:56:35.080Z,208
2023-05-18T14:59:53.512Z,213
2023-05-18T15:00:59.744Z,213
2023-05-18T15:02:05.784Z,208
2023-05-18T15:03:11.902Z,208
2023-05-18T15:04:17.060Z,208
2023-05-18T15:05:23.231Z,208
2023-05-18T15:07:35.503Z,208
2023-05-18T15:08:41.665Z,208
2023-05-18T15:09:47.861Z,208
2023-05-18T15:14:12.476Z,168
2023-05-18T15:17:30.907Z,146
2023-05-18T15:18:35.961Z,151
2023-05-18T15:19:42.089Z,146
2023-05-18T15:20:48.323Z,140
2023-05-18T15:23:00.567Z,123
2023-05-18T15:24:06.669Z,118
2023-05-18T15:30:43.578Z,106
2023-05-18T15:31:49.694Z,112
2023-05-18T15:34:00.990Z,112
2023-05-18T15:37:19.434Z,101
2023-05-18T15:38:25.530Z,101
2023-05-18T15:40:37.830Z,101
2023-05-18T15:46:08.691Z,101
2023-05-18T15:47:14.804Z,101
2023-05-18T15:49:27.089Z,90
2023-05-18T15:50:33.225Z,84
2023-05-18T15:52:45.539Z,84
2023-05-18T15:53:51.653Z,84
2023-05-18T15:54:57.815Z,84
2023-05-18T15:56:03.938Z,90
2023-05-18T15:57:10.080Z,95
2023-05-18T15:58:16.229Z,95
2023-05-18T16:03:46.948Z,90
2023-05-18T16:04:52.117Z,90
2023-05-18T16:05:58.248Z,90
2023-05-18T16:07:04.402Z,90
2023-05-18T16:08:10.527Z,84
2023-05-18T16:10:22.819Z,84
2023-05-18T16:11:28.962Z,78
2023-05-18T16:12:35.130Z,78
2023-05-18T16:13:41.279Z,73
2023-05-18T16:18:05.842Z,67
2023-05-18T16:19:10.989Z,67
2023-05-18T16:20:17.126Z,67
2023-05-18T16:21:23.312Z,73
2023-05-18T16:23:35.564Z,78
2023-05-18T16:25:47.857Z,78
2023-05-18T16:26:54.010Z,78
2023-05-18T16:29:06.272Z,73
2023-05-18T16:30:12.427Z,73
2023-05-18T16:31:18.558Z,73
2023-05-18T16:32:24.696Z,67
2023-05-18T16:34:35.997Z,67
2023-05-18T16:35:42.143Z,61
2023-05-18T16:36:48.282Z,56
2023-05-18T16:40:06.719Z,50
2023-05-18T16:41:12.858Z,50
2023-05-18T16:42:18.999Z,50
2023-05-18T16:43:25.152Z,45
2023-05-18T16:44:31.284Z,45
2023-05-18T16:45:37.441Z,45
2023-05-18T16:46:43.559Z,45
2023-05-18T16:47:48.796Z,45
2023-05-18T16:51:07.217Z,45
2023-05-18T16:52:13.301Z,45
2023-05-18T16:53:19.466Z,45
2023-05-18T16:55:31.732Z,45
2023-05-18T16:56:37.866Z,45
2023-05-18T16:57:44.045Z,45
2023-05-18T16:59:55.337Z,39
2023-05-18T17:01:01.463Z,39
2023-05-18T17:04:18.927Z,39
2023-05-18T17:05:25.066Z,39
2023-05-18T17:07:36.362Z,45
2023-05-18T17:09:47.678Z,50
2023-05-18T17:10:53.819Z,50
2023-05-18T17:11:58.994Z,50
2023-05-18T17:13:05.159Z,50
2023-05-18T17:14:11.274Z,50
2023-05-18T17:18:35.850Z,50
2023-05-18T17:19:41.974Z,50
2023-05-18T17:20:48.120Z,50
2023-05-18T17:21:54.261Z,50
2023-05-18T17:25:12.709Z,50
2023-05-18T17:26:17.858Z,50
2023-05-18T17:27:24.074Z,50
2023-05-18T17:28:30.155Z,50
2023-05-18T17:29:36.291Z,50
2023-05-18T17:35:07.009Z,39
2023-05-18T17:36:13.161Z,39
2023-05-18T17:37:19.287Z,33
2023-05-18T17:40:37.714Z,33
2023-05-18T17:41:42.882Z,28
2023-05-18T17:42:49.062Z,28
2023-05-18T17:43:55.170Z,28
2023-05-18T17:46:07.462Z,28
2023-05-18T17:47:13.593Z,22
2023-05-18T17:50:32.023Z,22
2023-05-18T17:51:38.178Z,16
2023-05-18T17:52:44.375Z,16
2023-05-18T17:53:50.488Z,16
2023-05-18T17:57:08.896Z,22
2023-05-18T17:58:14.039Z,22
2023-05-18T17:59:20.201Z,22
2023-05-18T18:02:38.617Z,22
2023-05-18T18:04:50.882Z,16
2023-05-18T18:05:57.057Z,16
2023-05-18T18:07:03.188Z,22
2023-05-18T18:09:15.468Z,16
2023-05-18T18:10:21.599Z,16
2023-05-18T18:11:27.852Z,16
2023-05-18T18:13:39.049Z,16
2023-05-18T18:14:45.199Z,16
2023-05-18T18:19:09.783Z,11
2023-05-18T18:20:15.895Z,11
2023-05-18T18:21:22.061Z,11
2023-05-18T18:22:28.191Z,11
2023-05-18T18:24:40.479Z,11
2023-05-18T18:25:46.637Z,11
2023-05-18T18:26:52.760Z,11
2023-05-18T18:30:10.214Z,5
2023-05-18T18:31:16.346Z,5
2023-05-18T18:32:22.509Z,5
2023-05-18T18:33:28.699Z,5
2023-05-18T18:34:34.797Z,5
2023-05-18T18:35:40.937Z,5
2023-05-18T18:36:47.066Z,5
2023-05-18T18:38:59.352Z,5
2023-05-18T18:40:05.506Z,5
2023-05-18T18:41:11.659Z,5
2023-05-18T18:42:16.821Z,5
2023-05-18T18:43:22.941Z,0
2023-05-18T18:44:29.121Z,0
2023-05-18T18:46:41.388Z,0
2023-05-18T18:48:53.663Z,0
2023-05-18T18:49:59.802Z,0
2023-05-18T18:51:05.985Z,0
2023-05-18T18:52:12.093Z,0
2023-05-18T18:53:18.263Z,0
2023-05-18T18:54:24.377Z,0
2023-05-18T18:58:48.939Z,0
2023-05-18T18:59:54.190Z,0
2023-05-18T19:01:00.250Z,0
2023-05-18T19:03:12.560Z,0
2023-05-18T19:04:18.706Z,0
2023-05-18T19:05:24.834Z,0
2023-05-18T19:06:30.986Z,0
2023-05-18T19:08:43.252Z,0
2023-05-18T19:10:55.546Z,0
2023-05-18T19:14:13.965Z,0
2023-05-18T19:15:19.118Z,0
2023-05-18T19:16:25.262Z,0
2023-05-18T19:20:49.847Z,0
2023-05-18T19:21:55.991Z,0
2023-05-18T19:24:08.269Z,0
2023-05-18T19:25:14.414Z,0
2023-05-18T19:26:20.552Z,0
2023-05-18T19:28:32.849Z,0
2023-05-18T19:29:37.988Z,0
2023-05-18T19:30:44.149Z,0
2023-05-18T19:31:50.337Z,0
2023-05-18T19:34:02.648Z,0
2023-05-18T19:38:27.205Z,0
2023-05-18T19:39:33.288Z,0
2023-05-18T19:41:45.619Z,0
2023-05-18T19:42:51.710Z,0
2023-05-18T19:43:56.862Z,0
2023-05-18T19:45:02.999Z,0
2023-05-18T19:46:09.146Z,0
2023-05-18T19:47:15.326Z,0
2023-05-18T19:48:21.468Z,0
2023-05-18T19:49:27.603Z,0
2023-05-18T19:50:33.716Z,0
2023-05-18T19:52:46.023Z,0
2023-05-18T19:53:52.150Z,0
2023-05-18T19:54:58.297Z,0
2023-05-18T19:56:04.434Z,0
2023-05-18T19:57:10.588Z,0
2023-05-18T19:58:15.742Z,0
2023-05-18T19:59:21.885Z,0
2023-05-18T20:00:28.026Z,0
2023-05-18T20:01:34.190Z,0
2023-05-18T20:03:46.460Z,0
2023-05-18T20:04:52.594Z,0
2023-05-18T20:05:58.742Z,0
2023-05-18T20:07:04.896Z,0
2023-05-18T20:11:29.453Z,0
2023-05-18T20:13:40.780Z,0
2023-05-18T20:14:46.909Z,0
2023-05-18T20:15:53.038Z,0
2023-05-18T20:18:05.343Z,0
2023-05-18T20:19:11.463Z,0
2023-05-18T20:21:23.754Z,0
2023-05-18T20:22:29.895Z,0
2023-05-18T20:29:06.773Z,0
2023-05-18T20:30:11.931Z,0
2023-05-18T20:31:18.123Z,0
2023-05-18T20:32:24.216Z,0
2023-05-18T20:34:36.494Z,0
2023-05-18T20:35:42.644Z,0
2023-05-18T20:37:54.913Z,0
2023-05-18T20:39:01.070Z,0
2023-05-18T20:40:07.353Z,0
2023-05-18T20:43:25.631Z,0
2023-05-18T20:44:30.784Z,0
2023-05-18T20:45:36.924Z,0
2023-05-18T20:47:49.223Z,0
2023-05-18T20:50:01.507Z,0
2023-05-18T20:51:07.671Z,0
2023-05-18T20:53:19.943Z,0
2023-05-18T20:54:25.105Z,0
2023-05-18T20:55:31.273Z,0
2023-05-18T20:58:49.725Z,0
2023-05-18T21:01:01.947Z,0
2023-05-18T21:02:08.165Z,0
2023-05-18T21:03:14.243Z,0
2023-05-18T21:04:20.470Z,0
2023-05-18T21:05:26.529Z,0
2023-05-18T21:07:38.821Z,0
2023-05-18T21:08:43.969Z,0
2023-05-18T21:10:56.258Z,0
2023-05-18T21:12:02.417Z,0
2023-05-18T21:13:08.539Z,0
2023-05-18T21:17:33.118Z,0
2023-05-18T21:18:39.324Z,0
2023-05-18T21:20:51.538Z,0
2023-05-18T21:24:09.981Z,0
2023-05-18T21:25:15.125Z,0
2023-05-18T21:27:27.445Z,0
2023-05-18T21:28:33.588Z,0
2023-05-18T21:31:52.012Z,0
2023-05-18T21:32:58.133Z,0
2023-05-18T21:34:04.281Z,0
2023-05-18T21:36:16.562Z,0
2023-05-18T21:37:22.702Z,0
2023-05-18T21:38:28.847Z,0
2023-05-18T21:39:34.004Z,0
2023-05-18T21:40:40.149Z,0
2023-05-18T21:41:46.294Z,0
2023-05-18T21:42:52.439Z,0
2023-05-18T21:45:04.728Z,0
2023-05-18T21:48:23.153Z,0
2023-05-18T21:49:29.305Z,0
2023-05-18T21:50:35.437Z,0
2023-05-18T21:51:41.617Z,0
2023-05-18T21:52:47.731Z,0
2023-05-18T21:53:52.924Z,0
2023-05-18T21:54:59.047Z,0
2023-05-18T21:56:05.191Z,0
2023-05-18T21:57:11.335Z,0
2023-05-18T21:58:17.457Z,0
2023-05-18T21:59:23.604Z,0
2023-05-18T22:02:42.049Z,0
2023-05-18T22:06:00.457Z,0
2023-05-18T22:07:06.601Z,0
2023-05-18T22:08:11.804Z,0
2023-05-18T22:09:17.950Z,0
2023-05-18T22:10:24.071Z,0
2023-05-18T22:11:30.235Z,0
2023-05-18T22:13:42.476Z,0
2023-05-18T22:14:48.634Z,0
2023-05-18T22:17:00.913Z,0
2023-05-18T22:18:07.062Z,0
2023-05-18T22:19:13.196Z,0
2023-05-18T22:22:31.655Z,0
2023-05-18T22:23:36.778Z,0
2023-05-18T22:24:42.920Z,0
2023-05-18T22:25:49.087Z,0
2023-05-18T22:26:55.210Z,0
2023-05-18T22:28:01.347Z,0
2023-05-18T22:33:32.119Z,0
2023-05-18T22:34:38.207Z,0
2023-05-18T22:35:44.357Z,0
2023-05-18T22:37:56.636Z,0
2023-05-18T22:39:01.796Z,0
2023-05-18T22:40:07.968Z,0
2023-05-18T22:42:20.346Z,0
2023-05-18T22:43:26.354Z,0
2023-05-18T22:47:50.967Z,0
2023-05-18T22:48:57.095Z,0
2023-05-18T22:50:03.228Z,0
2023-05-18T22:51:09.384Z,0
2023-05-18T22:52:15.509Z,0
2023-05-18T22:54:26.828Z,0
2023-05-18T22:55:32.988Z,0
2023-05-18T22:56:39.106Z,0
2023-05-18T22:57:45.239Z,0
2023-05-18T22:58:51.396Z,0
2023-05-18T22:59:57.543Z,0
2023-05-18T23:02:09.820Z,0
2023-05-18T23:03:15.965Z,0
2023-05-18T23:04:22.101Z,0
2023-05-18T23:05:28.257Z,0
2023-05-18T23:06:34.399Z,0
2023-05-18T23:10:57.983Z,0
2023-05-18T23:12:04.128Z,0
2023-05-18T23:13:10.268Z,0
2023-05-18T23:14:16.407Z,0
2023-05-18T23:16:28.716Z,0
2023-05-18T23:18:41.012Z,0
2023-05-18T23:19:47.125Z,0
2023-05-18T23:23:05.563Z,0
2023-05-18T23:24:10.711Z,0